sensor_id;sensor_type;location;lat;lon;timestamp;pressure;altitude;pressure_sealevel;temperature;humidity
52249;BME280;38541;48.130;8.378;2023-05-21T00:01:47;92430.06;;;13.59;73.77
52249;BME280;38541;48.130;8.378;2023-05-21T00:04:15;92424.38;;;13.51;74.23
52249;BME280;38541;48.130;8.378;2023-05-21T00:06:42;92428.00;;;13.55;74.25
52249;BME280;38541;48.130;8.378;2023-05-21T00:09:09;92424.97;;;13.48;74.27
52249;BME280;38541;48.130;8.378;2023-05-21T00:11:38;92423.81;;;13.54;74.04
52249;BME280;38541;48.130;8.378;2023-05-21T00:14:04;92424.38;;;13.51;73.73
52249;BME280;38541;48.130;8.378;2023-05-21T00:16:31;92419.13;;;13.51;74.14
52249;BME280;38541;48.130;8.378;2023-05-21T00:18:57;92419.59;;;13.53;74.31
52249;BME280;38541;48.130;8.378;2023-05-21T00:21:24;92409.13;;;13.48;74.20
52249;BME280;38541;48.130;8.378;2023-05-21T00:23:52;92418.91;;;13.48;73.93
52249;BME280;38541;48.130;8.378;2023-05-21T00:26:22;92413.03;;;13.51;73.89
52249;BME280;38541;48.130;8.378;2023-05-21T00:28:55;92411.97;;;13.52;74.06
52249;BME280;38541;48.130;8.378;2023-05-21T00:31:22;92403.13;;;13.43;74.41
52249;BME280;38541;48.130;8.378;2023-05-21T00:33:48;92403.41;;;13.41;73.89
52249;BME280;38541;48.130;8.378;2023-05-21T00:36:15;92406.34;;;13.39;73.92
52249;BME280;38541;48.130;8.378;2023-05-21T00:38:42;92403.19;;;13.37;74.17
52249;BME280;38541;48.130;8.378;2023-05-21T00:41:09;92403.75;;;13.34;74.19
52249;BME280;38541;48.130;8.378;2023-05-21T00:43:37;92399.00;;;13.36;74.29
52249;BME280;38541;48.130;8.378;2023-05-21T00:46:10;92399.06;;;13.31;74.45
52249;BME280;38541;48.130;8.378;2023-05-21T00:48:37;92393.78;;;13.31;74.34
52249;BME280;38541;48.130;8.378;2023-05-21T00:51:05;92398.06;;;13.27;73.98
52249;BME280;38541;48.130;8.378;2023-05-21T00:53:32;92397.00;;;13.28;74.13
52249;BME280;38541;48.130;8.378;2023-05-21T00:56:02;92394.94;;;13.25;73.92
52249;BME280;38541;48.130;8.378;2023-05-21T00:58:28;92397.06;;;13.23;73.99
52249;BME280;38541;48.130;8.378;2023-05-21T01:00:56;92399.00;;;13.17;73.98
52249;BME280;38541;48.130;8.378;2023-05-21T01:03:23;92397.22;;;13.12;74.01
52249;BME280;38541;48.130;8.378;2023-05-21T01:05:51;92392.75;;;13.13;74.31
52249;BME280;38541;48.130;8.378;2023-05-21T01:08:26;92391.88;;;13.18;74.81
52249;BME280;38541;48.130;8.378;2023-05-21T01:10:54;92389.59;;;13.11;74.31
52249;BME280;38541;48.130;8.378;2023-05-21T01:13:22;92394.66;;;13.07;74.74
52249;BME280;38541;48.130;8.378;2023-05-21T01:15:50;92390.47;;;13.06;74.22
52249;BME280;38541;48.130;8.378;2023-05-21T01:18:17;92390.03;;;12.99;74.42
52249;BME280;38541;48.130;8.378;2023-05-21T01:20:45;92380.00;;;13.01;74.65
52249;BME280;38541;48.130;8.378;2023-05-21T01:23:16;92381.81;;;13.01;74.78
52249;BME280;38541;48.130;8.378;2023-05-21T01:25:43;92380.34;;;12.94;74.82
52249;BME280;38541;48.130;8.378;2023-05-21T01:28:10;92374.84;;;12.91;75.07
52249;BME280;38541;48.130;8.378;2023-05-21T01:30:38;92373.56;;;12.88;75.17
52249;BME280;38541;48.130;8.378;2023-05-21T01:33:33;92370.66;;;12.90;74.99
52249;BME280;38541;48.130;8.378;2023-05-21T01:38:48;92373.63;;;12.83;74.82
52249;BME280;38541;48.130;8.378;2023-05-21T01:41:17;92378.91;;;12.83;74.91
52249;BME280;38541;48.130;8.378;2023-05-21T01:43:45;92370.50;;;12.81;74.90
52249;BME280;38541;48.130;8.378;2023-05-21T01:46:16;92366.56;;;12.78;75.58
52249;BME280;38541;48.130;8.378;2023-05-21T01:48:43;92365.53;;;12.79;75.92
52249;BME280;38541;48.130;8.378;2023-05-21T01:51:10;92358.13;;;12.81;75.68
52249;BME280;38541;48.130;8.378;2023-05-21T01:53:37;92363.38;;;12.81;75.89
52249;BME280;38541;48.130;8.378;2023-05-21T01:56:07;92370.28;;;12.77;75.55
52249;BME280;38541;48.130;8.378;2023-05-21T01:58:33;92355.81;;;12.75;75.11
52249;BME280;38541;48.130;8.378;2023-05-21T02:01:00;92360.88;;;12.71;74.87
52249;BME280;38541;48.130;8.378;2023-05-21T02:03:28;92361.09;;;12.75;75.07
52249;BME280;38541;48.130;8.378;2023-05-21T02:05:56;92353.03;;;12.66;75.84
52249;BME280;38541;48.130;8.378;2023-05-21T02:08:23;92352.81;;;12.62;76.26
52249;BME280;38541;48.130;8.378;2023-05-21T02:10:50;92353.97;;;12.56;76.90
52249;BME280;38541;48.130;8.378;2023-05-21T02:13:17;92358.09;;;12.62;76.77
52249;BME280;38541;48.130;8.378;2023-05-21T02:15:51;92353.47;;;12.73;75.69
52249;BME280;38541;48.130;8.378;2023-05-21T02:18:21;92353.13;;;12.61;76.13
52249;BME280;38541;48.130;8.378;2023-05-21T02:20:47;92357.59;;;12.60;77.00
52249;BME280;38541;48.130;8.378;2023-05-21T02:23:14;92355.81;;;12.55;76.68
52249;BME280;38541;48.130;8.378;2023-05-21T02:25:41;92353.75;;;12.52;76.69
52249;BME280;38541;48.130;8.378;2023-05-21T02:28:07;92356.88;;;12.54;76.55
52249;BME280;38541;48.130;8.378;2023-05-21T02:30:34;92355.81;;;12.55;76.59
52249;BME280;38541;48.130;8.378;2023-05-21T02:33:01;92349.19;;;12.58;76.58
52249;BME280;38541;48.130;8.378;2023-05-21T02:35:28;92351.81;;;12.58;76.50
52249;BME280;38541;48.130;8.378;2023-05-21T02:37:54;92347.91;;;12.55;76.45
52249;BME280;38541;48.130;8.378;2023-05-21T02:40:24;92342.94;;;12.54;76.24
52249;BME280;38541;48.130;8.378;2023-05-21T02:42:51;92340.56;;;12.52;76.00
52249;BME280;38541;48.130;8.378;2023-05-21T02:45:19;92346.13;;;12.51;76.05
52249;BME280;38541;48.130;8.378;2023-05-21T02:47:46;92344.00;;;12.53;76.14
52249;BME280;38541;48.130;8.378;2023-05-21T02:50:16;92337.69;;;12.49;76.82
52249;BME280;38541;48.130;8.378;2023-05-21T02:52:48;92337.50;;;12.45;76.47
52249;BME280;38541;48.130;8.378;2023-05-21T02:55:15;92338.63;;;12.39;76.17
52249;BME280;38541;48.130;8.378;2023-05-21T02:57:41;92342.81;;;12.40;76.31
52249;BME280;38541;48.130;8.378;2023-05-21T03:00:08;92333.91;;;12.36;76.72
52249;BME280;38541;48.130;8.378;2023-05-21T03:02:39;92338.41;;;12.35;76.89
52249;BME280;38541;48.130;8.378;2023-05-21T03:05:06;92333.91;;;12.36;77.15
52249;BME280;38541;48.130;8.378;2023-05-21T03:07:32;92338.19;;;12.32;76.67
52249;BME280;38541;48.130;8.378;2023-05-21T03:09:59;92337.19;;;12.27;77.67
52249;BME280;38541;48.130;8.378;2023-05-21T03:12:26;92338.19;;;12.32;78.16
52249;BME280;38541;48.130;8.378;2023-05-21T03:14:53;92341.88;;;12.31;77.71
52249;BME280;38541;48.130;8.378;2023-05-21T03:17:19;92336.06;;;12.34;77.41
52249;BME280;38541;48.130;8.378;2023-05-21T03:19:47;92338.47;;;12.30;77.17
52249;BME280;38541;48.130;8.378;2023-05-21T03:22:15;92340.59;;;12.28;76.99
52249;BME280;38541;48.130;8.378;2023-05-21T03:24:41;92327.41;;;12.28;76.52
52249;BME280;38541;48.130;8.378;2023-05-21T03:27:08;92332.19;;;12.26;75.94
52249;BME280;38541;48.130;8.378;2023-05-21T03:29:34;92336.19;;;12.23;75.69
52249;BME280;38541;48.130;8.378;2023-05-21T03:32:02;92334.91;;;12.21;76.14
52249;BME280;38541;48.130;8.378;2023-05-21T03:34:30;92342.56;;;12.17;76.36
52249;BME280;38541;48.130;8.378;2023-05-21T03:36:59;92336.22;;;12.18;76.93
52249;BME280;38541;48.130;8.378;2023-05-21T03:39:26;92337.53;;;12.21;77.09
52249;BME280;38541;48.130;8.378;2023-05-21T03:41:54;92334.16;;;12.15;76.42
52249;BME280;38541;48.130;8.378;2023-05-21T03:44:30;92338.19;;;12.07;76.59
52249;BME280;38541;48.130;8.378;2023-05-21T03:47:15;92342.69;;;12.07;77.03
52249;BME280;38541;48.130;8.378;2023-05-21T03:49:42;92339.56;;;12.05;77.29
52249;BME280;38541;48.130;8.378;2023-05-21T03:52:08;92347.72;;;12.03;77.50
52249;BME280;38541;48.130;8.378;2023-05-21T03:54:35;92349.56;;;12.03;76.99
52249;BME280;38541;48.130;8.378;2023-05-21T03:57:05;92348.03;;;11.96;76.22
52249;BME280;38541;48.130;8.378;2023-05-21T03:59:33;92348.38;;;11.90;77.36
52249;BME280;38541;48.130;8.378;2023-05-21T04:01:59;92351.63;;;11.81;78.20
52249;BME280;38541;48.130;8.378;2023-05-21T04:04:26;92345.56;;;11.81;78.66
52249;BME280;38541;48.130;8.378;2023-05-21T04:06:54;92352.13;;;11.83;79.06
52249;BME280;38541;48.130;8.378;2023-05-21T04:09:21;92351.56;;;11.87;78.75
52249;BME280;38541;48.130;8.378;2023-05-21T04:11:50;92347.09;;;11.87;79.03
52249;BME280;38541;48.130;8.378;2023-05-21T04:14:17;92352.56;;;11.91;79.16
52249;BME280;38541;48.130;8.378;2023-05-21T04:16:43;92356.22;;;11.95;78.98
52249;BME280;38541;48.130;8.378;2023-05-21T04:19:10;92354.66;;;11.94;78.57
52249;BME280;38541;48.130;8.378;2023-05-21T04:21:36;92358.56;;;11.96;78.55
52249;BME280;38541;48.130;8.378;2023-05-21T04:24:04;92357.00;;;11.95;78.30
52249;BME280;38541;48.130;8.378;2023-05-21T04:26:49;92364.06;;;12.00;77.90
52249;BME280;38541;48.130;8.378;2023-05-21T04:29:16;92366.69;;;12.00;77.77
52249;BME280;38541;48.130;8.378;2023-05-21T04:31:48;92368.03;;;11.97;77.89
52249;BME280;38541;48.130;8.378;2023-05-21T04:34:15;92366.97;;;11.98;77.95
52249;BME280;38541;48.130;8.378;2023-05-21T04:36:45;92373.28;;;11.97;77.88
52249;BME280;38541;48.130;8.378;2023-05-21T04:39:13;92378.00;;;12.01;77.72
52249;BME280;38541;48.130;8.378;2023-05-21T04:41:39;92378.53;;;12.03;77.36
52249;BME280;38541;48.130;8.378;2023-05-21T04:44:06;92382.22;;;12.02;77.96
52249;BME280;38541;48.130;8.378;2023-05-21T04:46:33;92378.53;;;12.03;78.38
52249;BME280;38541;48.130;8.378;2023-05-21T04:49:01;92383.25;;;12.06;78.63
52249;BME280;38541;48.130;8.378;2023-05-21T04:51:29;92377.38;;;12.14;78.78
52249;BME280;38541;48.130;8.378;2023-05-21T04:53:56;92374.91;;;12.23;78.53
52249;BME280;38541;48.130;8.378;2023-05-21T04:56:23;92376.19;;;12.25;78.56
52249;BME280;38541;48.130;8.378;2023-05-21T04:58:53;92384.09;;;12.25;78.51
52249;BME280;38541;48.130;8.378;2023-05-21T05:01:20;92381.41;;;12.31;78.46
52249;BME280;38541;48.130;8.378;2023-05-21T05:03:51;92380.25;;;12.37;78.21
52249;BME280;38541;48.130;8.378;2023-05-21T05:06:18;92380.22;;;12.42;78.13
52249;BME280;38541;48.130;8.378;2023-05-21T05:08:45;92383.28;;;12.49;78.04
52249;BME280;38541;48.130;8.378;2023-05-21T05:11:13;92386.91;;;12.53;77.69
52249;BME280;38541;48.130;8.378;2023-05-21T05:13:39;92375.47;;;12.63;77.52
52249;BME280;38541;48.130;8.378;2023-05-21T05:16:08;92378.81;;;12.69;77.36
52249;BME280;38541;48.130;8.378;2023-05-21T05:18:35;92386.47;;;12.70;76.83
52249;BME280;38541;48.130;8.378;2023-05-21T05:21:02;92378.75;;;12.74;76.76
52249;BME280;38541;48.130;8.378;2023-05-21T05:23:30;92379.19;;;12.81;76.76
52249;BME280;38541;48.130;8.378;2023-05-21T05:25:56;92384.75;;;12.80;76.91
52249;BME280;38541;48.130;8.378;2023-05-21T05:28:23;92383.41;;;12.82;77.30
52249;BME280;38541;48.130;8.378;2023-05-21T05:30:50;92385.97;;;12.88;77.21
52249;BME280;38541;48.130;8.378;2023-05-21T05:33:23;92385.38;;;12.91;77.18
52249;BME280;38541;48.130;8.378;2023-05-21T05:35:49;92379.75;;;12.97;77.09
52249;BME280;38541;48.130;8.378;2023-05-21T05:38:16;92372.75;;;13.07;76.70
52249;BME280;38541;48.130;8.378;2023-05-21T05:40:42;92379.81;;;13.11;76.58
52249;BME280;38541;48.130;8.378;2023-05-21T05:43:10;92379.47;;;13.18;76.74
52249;BME280;38541;48.130;8.378;2023-05-21T05:45:36;92377.81;;;13.22;76.70
52249;BME280;38541;48.130;8.378;2023-05-21T05:48:09;92379.09;;;13.25;76.62
52249;BME280;38541;48.130;8.378;2023-05-21T05:50:35;92374.53;;;13.31;76.64
52249;BME280;38541;48.130;8.378;2023-05-21T05:53:02;92377.31;;;13.39;76.53
52249;BME280;38541;48.130;8.378;2023-05-21T05:55:28;92382.59;;;13.39;76.28
52249;BME280;38541;48.130;8.378;2023-05-21T05:57:55;92383.09;;;13.41;76.70
52249;BME280;38541;48.130;8.378;2023-05-21T06:00:21;92380.09;;;13.48;76.98
52249;BME280;38541;48.130;8.378;2023-05-21T06:02:49;92380.78;;;13.54;76.66
52249;BME280;38541;48.130;8.378;2023-05-21T06:05:16;92380.41;;;13.61;76.60
52249;BME280;38541;48.130;8.378;2023-05-21T06:07:43;92377.00;;;13.60;76.82
52249;BME280;38541;48.130;8.378;2023-05-21T06:10:09;92379.06;;;13.63;77.06
52249;BME280;38541;48.130;8.378;2023-05-21T06:12:36;92371.84;;;13.69;76.99
52249;BME280;38541;48.130;8.378;2023-05-21T06:15:04;92377.25;;;13.78;76.94
52249;BME280;38541;48.130;8.378;2023-05-21T06:17:31;92372.66;;;13.83;76.62
52249;BME280;38541;48.130;8.378;2023-05-21T06:19:58;92384.38;;;13.91;76.76
52249;BME280;38541;48.130;8.378;2023-05-21T06:22:26;92374.72;;;14.01;76.50
52249;BME280;38541;48.130;8.378;2023-05-21T06:24:53;92385.09;;;14.11;76.09
52249;BME280;38541;48.130;8.378;2023-05-21T06:27:20;92377.16;;;14.11;76.12
52249;BME280;38541;48.130;8.378;2023-05-21T06:29:47;92379.94;;;14.34;75.40
52249;BME280;38541;48.130;8.378;2023-05-21T06:32:14;92375.81;;;14.41;75.48
52249;BME280;38541;48.130;8.378;2023-05-21T06:34:41;92379.63;;;14.49;75.10
52249;BME280;38541;48.130;8.378;2023-05-21T06:37:07;92373.28;;;14.50;75.32
52249;BME280;38541;48.130;8.378;2023-05-21T06:39:34;92373.84;;;14.61;74.97
52249;BME280;38541;48.130;8.378;2023-05-21T06:42:00;92377.59;;;14.74;74.71
52249;BME280;38541;48.130;8.378;2023-05-21T06:44:50;92377.44;;;14.93;74.03
52249;BME280;38541;48.130;8.378;2023-05-21T06:47:25;92373.19;;;15.06;73.84
52249;BME280;38541;48.130;8.378;2023-05-21T06:49:52;92374.56;;;15.04;74.01
52249;BME280;38541;48.130;8.378;2023-05-21T06:52:18;92376.34;;;15.08;74.06
52249;BME280;38541;48.130;8.378;2023-05-21T06:54:45;92376.94;;;15.28;73.86
52249;BME280;38541;48.130;8.378;2023-05-21T06:57:13;92370.94;;;15.36;73.12
52249;BME280;38541;48.130;8.378;2023-05-21T06:59:41;92372.81;;;15.36;73.04
52249;BME280;38541;48.130;8.378;2023-05-21T07:02:07;92373.81;;;15.49;72.28
52249;BME280;38541;48.130;8.378;2023-05-21T07:04:34;92370.03;;;15.64;72.29
52249;BME280;38541;48.130;8.378;2023-05-21T07:07:01;92365.44;;;15.33;73.41
52249;BME280;38541;48.130;8.378;2023-05-21T07:09:30;92370.31;;;15.39;73.31
52249;BME280;38541;48.130;8.378;2023-05-21T07:11:57;92372.13;;;15.53;72.96
52249;BME280;38541;48.130;8.378;2023-05-21T07:14:24;92373.09;;;15.57;72.79
52249;BME280;38541;48.130;8.378;2023-05-21T07:16:51;92375.97;;;15.69;72.56
52249;BME280;38541;48.130;8.378;2023-05-21T07:19:18;92373.53;;;15.82;72.55
52249;BME280;38541;48.130;8.378;2023-05-21T07:21:45;92375.22;;;16.01;72.30
52249;BME280;38541;48.130;8.378;2023-05-21T07:24:12;92373.38;;;16.01;71.10
52249;BME280;38541;48.130;8.378;2023-05-21T07:26:39;92381.22;;;16.15;70.59
52249;BME280;38541;48.130;8.378;2023-05-21T07:29:06;92382.50;;;16.26;70.77
52249;BME280;38541;48.130;8.378;2023-05-21T07:31:33;92374.28;;;16.37;69.94
52249;BME280;38541;48.130;8.378;2023-05-21T07:33:59;92374.31;;;16.46;69.40
52249;BME280;38541;48.130;8.378;2023-05-21T07:36:29;92374.31;;;16.54;68.85
52249;BME280;38541;48.130;8.378;2023-05-21T07:38:57;92368.28;;;16.63;68.75
52249;BME280;38541;48.130;8.378;2023-05-21T07:41:24;92371.59;;;16.77;68.37
52249;BME280;38541;48.130;8.378;2023-05-21T07:43:51;92369.41;;;16.79;67.37
52249;BME280;38541;48.130;8.378;2023-05-21T07:46:19;92371.72;;;16.81;67.40
52249;BME280;38541;48.130;8.378;2023-05-21T07:48:49;92374.25;;;16.95;66.79
52249;BME280;38541;48.130;8.378;2023-05-21T07:51:16;92370.25;;;17.06;66.96
52249;BME280;38541;48.130;8.378;2023-05-21T07:53:42;92371.03;;;17.16;66.72
52249;BME280;38541;48.130;8.378;2023-05-21T07:56:11;92376.03;;;17.26;66.55
52249;BME280;38541;48.130;8.378;2023-05-21T07:58:37;92375.72;;;17.36;65.76
52249;BME280;38541;48.130;8.378;2023-05-21T08:01:06;92374.94;;;17.45;66.63
52249;BME280;38541;48.130;8.378;2023-05-21T08:03:33;92374.28;;;17.39;65.99
52249;BME280;38541;48.130;8.378;2023-05-21T08:06:00;92368.97;;;17.48;65.67
52249;BME280;38541;48.130;8.378;2023-05-21T08:08:27;92369.91;;;17.61;65.27
52249;BME280;38541;48.130;8.378;2023-05-21T08:10:55;92372.84;;;17.77;65.06
52249;BME280;38541;48.130;8.378;2023-05-21T08:13:24;92370.03;;;17.82;64.13
52249;BME280;38541;48.130;8.378;2023-05-21T08:15:51;92370.81;;;17.82;63.59
52249;BME280;38541;48.130;8.378;2023-05-21T08:18:20;92360.75;;;17.97;63.01
52249;BME280;38541;48.130;8.378;2023-05-21T08:20:49;92375.16;;;18.05;61.47
52249;BME280;38541;48.130;8.378;2023-05-21T08:23:18;92368.28;;;18.04;59.95
52249;BME280;38541;48.130;8.378;2023-05-21T08:25:49;92372.03;;;17.94;59.76
52249;BME280;38541;48.130;8.378;2023-05-21T08:28:15;92358.91;;;18.06;61.03
52249;BME280;38541;48.130;8.378;2023-05-21T08:30:42;92356.38;;;18.10;61.25
52249;BME280;38541;48.130;8.378;2023-05-21T08:33:09;92360.25;;;18.21;61.14
52249;BME280;38541;48.130;8.378;2023-05-21T08:35:37;92363.34;;;18.23;60.62
52249;BME280;38541;48.130;8.378;2023-05-21T08:38:15;92359.28;;;18.26;61.56
52249;BME280;38541;48.130;8.378;2023-05-21T08:40:53;92364.75;;;18.30;60.78
52249;BME280;38541;48.130;8.378;2023-05-21T08:43:20;92367.66;;;18.46;60.71
52249;BME280;38541;48.130;8.378;2023-05-21T08:45:52;92363.91;;;18.47;60.48
52249;BME280;38541;48.130;8.378;2023-05-21T08:48:23;92362.94;;;18.51;62.36
52249;BME280;38541;48.130;8.378;2023-05-21T08:50:51;92360.09;;;18.57;60.51
52249;BME280;38541;48.130;8.378;2023-05-21T08:53:24;92364.75;;;18.60;60.01
52249;BME280;38541;48.130;8.378;2023-05-21T08:55:55;92366.13;;;18.66;60.35
52249;BME280;38541;48.130;8.378;2023-05-21T08:58:31;92365.16;;;18.71;59.95
52249;BME280;38541;48.130;8.378;2023-05-21T09:00:58;92359.84;;;18.71;60.07
52249;BME280;38541;48.130;8.378;2023-05-21T09:03:26;92363.47;;;18.66;58.86
52249;BME280;38541;48.130;8.378;2023-05-21T09:05:55;92360.75;;;18.75;59.16
52249;BME280;38541;48.130;8.378;2023-05-21T09:08:28;92362.75;;;18.87;59.44
52249;BME280;38541;48.130;8.378;2023-05-21T09:11:01;92373.41;;;18.87;59.79
52249;BME280;38541;48.130;8.378;2023-05-21T09:13:35;92373.19;;;18.62;58.80
52249;BME280;38541;48.130;8.378;2023-05-21T09:16:10;92364.53;;;18.74;59.23
52249;BME280;38541;48.130;8.378;2023-05-21T09:18:36;92372.00;;;18.80;59.16
52249;BME280;38541;48.130;8.378;2023-05-21T09:21:26;92372.53;;;18.95;58.91
52249;BME280;38541;48.130;8.378;2023-05-21T09:24:08;92372.84;;;19.02;57.01
52249;BME280;38541;48.130;8.378;2023-05-21T09:26:34;92372.31;;;19.09;57.16
52249;BME280;38541;48.130;8.378;2023-05-21T09:29:04;92373.72;;;19.15;58.18
52249;BME280;38541;48.130;8.378;2023-05-21T09:31:30;92375.13;;;19.13;55.62
52249;BME280;38541;48.130;8.378;2023-05-21T09:33:59;92380.31;;;19.09;55.94
52249;BME280;38541;48.130;8.378;2023-05-21T09:36:26;92376.03;;;19.17;57.14
52249;BME280;38541;48.130;8.378;2023-05-21T09:38:54;92374.72;;;19.23;58.01
52249;BME280;38541;48.130;8.378;2023-05-21T09:41:30;92367.31;;;19.29;57.68
52249;BME280;38541;48.130;8.378;2023-05-21T09:43:59;92366.56;;;19.28;56.96
52249;BME280;38541;48.130;8.378;2023-05-21T09:46:26;92365.00;;;19.27;56.21
52249;BME280;38541;48.130;8.378;2023-05-21T09:48:53;92369.81;;;19.34;56.05
52249;BME280;38541;48.130;8.378;2023-05-21T09:51:20;92366.94;;;19.39;56.55
52249;BME280;38541;48.130;8.378;2023-05-21T09:53:50;92367.97;;;19.47;55.98
52249;BME280;38541;48.130;8.378;2023-05-21T09:56:22;92364.44;;;19.55;55.92
52249;BME280;38541;48.130;8.378;2023-05-21T09:58:57;92365.47;;;19.63;55.47
52249;BME280;38541;48.130;8.378;2023-05-21T10:01:26;92366.50;;;19.71;55.63
52249;BME280;38541;48.130;8.378;2023-05-21T10:03:55;92365.63;;;19.79;55.02
52249;BME280;38541;48.130;8.378;2023-05-21T10:06:27;92361.00;;;19.88;54.02
52249;BME280;38541;48.130;8.378;2023-05-21T10:08:55;92365.28;;;20.02;56.60
52249;BME280;38541;48.130;8.378;2023-05-21T10:11:25;92369.41;;;20.12;55.71
52249;BME280;38541;48.130;8.378;2023-05-21T10:13:56;92372.75;;;20.21;53.94
52249;BME280;38541;48.130;8.378;2023-05-21T10:16:24;92370.09;;;20.33;54.34
52249;BME280;38541;48.130;8.378;2023-05-21T10:18:52;92371.56;;;20.43;54.17
52249;BME280;38541;48.130;8.378;2023-05-21T10:21:22;92372.56;;;20.51;51.86
52249;BME280;38541;48.130;8.378;2023-05-21T10:23:49;92379.34;;;20.61;52.33
52249;BME280;38541;48.130;8.378;2023-05-21T10:26:18;92365.78;;;20.66;50.30
52249;BME280;38541;48.130;8.378;2023-05-21T10:28:48;92371.34;;;20.86;51.41
52249;BME280;38541;48.130;8.378;2023-05-21T10:31:16;92367.34;;;20.92;48.88
52249;BME280;38541;48.130;8.378;2023-05-21T10:33:43;92369.88;;;21.01;48.50
52249;BME280;38541;48.130;8.378;2023-05-21T10:36:10;92366.63;;;21.20;50.34
52249;BME280;38541;48.130;8.378;2023-05-21T10:38:37;92373.59;;;21.37;50.80
52249;BME280;38541;48.130;8.378;2023-05-21T10:41:05;92372.63;;;21.58;50.45
52249;BME280;38541;48.130;8.378;2023-05-21T10:43:40;92372.03;;;21.77;50.65
52249;BME280;38541;48.130;8.378;2023-05-21T10:46:23;92369.34;;;21.77;47.07
52249;BME280;38541;48.130;8.378;2023-05-21T10:57:32;92366.41;;;22.27;44.65
52249;BME280;38541;48.130;8.378;2023-05-21T10:59:54;92368.94;;;22.51;47.20
52249;BME280;38541;48.130;8.378;2023-05-21T11:02:25;92367.53;;;22.74;44.61
52249;BME280;38541;48.130;8.378;2023-05-21T11:04:58;92365.69;;;22.94;45.71
52249;BME280;38541;48.130;8.378;2023-05-21T11:07:56;92353.56;;;23.00;46.09
52249;BME280;38541;48.130;8.378;2023-05-21T11:10:39;92363.91;;;23.18;45.42
52249;BME280;38541;48.130;8.378;2023-05-21T11:13:11;92355.06;;;23.33;42.61
52249;BME280;38541;48.130;8.378;2023-05-21T11:21:17;92359.09;;;23.43;40.80
52249;BME280;38541;48.130;8.378;2023-05-21T11:23:50;92357.47;;;23.78;43.87
52249;BME280;38541;48.130;8.378;2023-05-21T11:26:24;92362.69;;;23.90;40.02
52249;BME280;38541;48.130;8.378;2023-05-21T11:31:32;92366.97;;;23.95;37.94
52249;BME280;38541;48.130;8.378;2023-05-21T11:34:18;92359.94;;;24.30;39.07
52249;BME280;38541;48.130;8.378;2023-05-21T11:36:46;92363.03;;;24.32;39.03
52249;BME280;38541;48.130;8.378;2023-05-21T11:39:16;92365.31;;;24.53;41.36
52249;BME280;38541;48.130;8.378;2023-05-21T11:41:57;92369.41;;;24.70;43.73
52249;BME280;38541;48.130;8.378;2023-05-21T11:44:45;92364.59;;;24.79;41.14
52249;BME280;38541;48.130;8.378;2023-05-21T11:47:16;92364.09;;;24.97;40.08
52249;BME280;38541;48.130;8.378;2023-05-21T11:49:43;92367.28;;;25.06;39.33
52249;BME280;38541;48.130;8.378;2023-05-21T11:52:12;92363.38;;;25.31;36.29
52249;BME280;38541;48.130;8.378;2023-05-21T11:54:41;92365.69;;;25.59;39.69
52249;BME280;38541;48.130;8.378;2023-05-21T11:57:12;92364.72;;;25.75;41.04
52249;BME280;38541;48.130;8.378;2023-05-21T11:59:43;92359.00;;;25.80;39.73
52249;BME280;38541;48.130;8.378;2023-05-21T12:02:14;92361.91;;;26.02;39.97
52249;BME280;38541;48.130;8.378;2023-05-21T12:04:45;92366.00;;;26.23;38.09
52249;BME280;38541;48.130;8.378;2023-05-21T12:07:13;92359.22;;;26.02;39.35
52249;BME280;38541;48.130;8.378;2023-05-21T12:09:50;92359.84;;;26.22;35.08
52249;BME280;38541;48.130;8.378;2023-05-21T12:12:18;92366.50;;;26.35;36.73
52249;BME280;38541;48.130;8.378;2023-05-21T12:14:50;92356.59;;;26.47;39.15
52249;BME280;38541;48.130;8.378;2023-05-21T12:17:19;92354.66;;;26.96;39.05
52249;BME280;38541;48.130;8.378;2023-05-21T12:19:46;92355.84;;;26.99;39.02
52249;BME280;38541;48.130;8.378;2023-05-21T12:22:13;92361.34;;;27.17;38.03
52249;BME280;38541;48.130;8.378;2023-05-21T12:24:43;92356.38;;;27.23;37.50
52249;BME280;38541;48.130;8.378;2023-05-21T12:27:11;92357.19;;;27.30;35.97
52249;BME280;38541;48.130;8.378;2023-05-21T12:29:40;92349.56;;;27.47;34.46
52249;BME280;38541;48.130;8.378;2023-05-21T12:32:09;92350.34;;;27.51;35.70
52249;BME280;38541;48.130;8.378;2023-05-21T12:37:16;92353.59;;;27.08;35.76
52249;BME280;38541;48.130;8.378;2023-05-21T12:39:44;92357.28;;;27.45;35.24
52249;BME280;38541;48.130;8.378;2023-05-21T12:42:12;92354.25;;;27.54;33.09
52249;BME280;38541;48.130;8.378;2023-05-21T12:44:43;92356.25;;;27.75;33.14
52249;BME280;38541;48.130;8.378;2023-05-21T12:47:10;92362.00;;;26.96;34.31
52249;BME280;38541;48.130;8.378;2023-05-21T12:49:42;92360.94;;;27.11;35.71
52249;BME280;38541;48.130;8.378;2023-05-21T12:52:20;92361.31;;;27.87;33.89
52249;BME280;38541;48.130;8.378;2023-05-21T12:54:51;92368.97;;;27.71;34.86
52249;BME280;38541;48.130;8.378;2023-05-21T12:57:21;92364.53;;;27.33;37.48
52249;BME280;38541;48.130;8.378;2023-05-21T12:59:52;92370.56;;;27.09;35.40
52249;BME280;38541;48.130;8.378;2023-05-21T13:04:56;92357.38;;;26.47;35.79
52249;BME280;38541;48.130;8.378;2023-05-21T13:07:24;92363.69;;;26.66;36.34
52249;BME280;38541;48.130;8.378;2023-05-21T13:09:52;92369.63;;;26.41;35.21
52249;BME280;38541;48.130;8.378;2023-05-21T13:12:20;92370.72;;;26.33;37.96
52249;BME280;38541;48.130;8.378;2023-05-21T13:14:52;92371.50;;;26.37;38.15
52249;BME280;38541;48.130;8.378;2023-05-21T13:17:19;92378.66;;;26.18;38.87
52249;BME280;38541;48.130;8.378;2023-05-21T13:20:14;92374.63;;;26.05;38.76
52249;BME280;38541;48.130;8.378;2023-05-21T13:22:45;92373.31;;;26.22;40.55
52249;BME280;38541;48.130;8.378;2023-05-21T13:25:16;92371.16;;;26.42;40.86
52249;BME280;38541;48.130;8.378;2023-05-21T13:27:44;92379.25;;;28.83;36.52
52249;BME280;38541;48.130;8.378;2023-05-21T13:30:11;92375.94;;;27.83;38.05
52249;BME280;38541;48.130;8.378;2023-05-21T13:32:39;92384.53;;;27.25;38.68
52249;BME280;38541;48.130;8.378;2023-05-21T13:35:06;92391.84;;;26.72;40.13